sensor_id;sensor_type;location;lat;lon;timestamp;pressure;altitude;pressure_sealevel;temperature;humidity
72798;BME280;61084;55.816;37.036;2023-04-08T00:01:50;100588.91;;;4.63;46.72
72798;BME280;61084;55.816;37.036;2023-04-08T00:04:16;100585.41;;;4.61;46.50
72798;BME280;61084;55.816;37.036;2023-04-08T00:06:42;100586.31;;;4.60;46.57
72798;BME280;61084;55.816;37.036;2023-04-08T00:09:08;100591.53;;;4.57;46.66
72798;BME280;61084;55.816;37.036;2023-04-08T00:11:33;100588.97;;;4.55;46.95
72798;BME280;61084;55.816;37.036;2023-04-08T00:14:02;100586.38;;;4.52;46.68
72798;BME280;61084;55.816;37.036;2023-04-08T00:16:28;100594.19;;;4.51;46.44
72798;BME280;61084;55.816;37.036;2023-04-08T00:18:54;100581.25;;;4.48;46.83
72798;BME280;61084;55.816;37.036;2023-04-08T00:21:20;100588.19;;;4.47;46.55
72798;BME280;61084;55.816;37.036;2023-04-08T00:23:46;100581.25;;;4.45;46.85
72798;BME280;61084;55.816;37.036;2023-04-08T00:26:11;100586.47;;;4.42;46.84
72798;BME280;61084;55.816;37.036;2023-04-08T00:28:45;100583.91;;;4.40;47.00
72798;BME280;61084;55.816;37.036;2023-04-08T00:31:12;100588.25;;;4.38;46.85
72798;BME280;61084;55.816;37.036;2023-04-08T00:33:37;100586.53;;;4.36;47.20
72798;BME280;61084;55.816;37.036;2023-04-08T00:36:03;100587.41;;;4.33;47.17
72798;BME280;61084;55.816;37.036;2023-04-08T00:38:33;100584.88;;;4.30;46.84
72798;BME280;61084;55.816;37.036;2023-04-08T00:40:58;100584.88;;;4.27;47.00
72798;BME280;61084;55.816;37.036;2023-04-08T00:43:27;100584.91;;;4.24;47.25
72798;BME280;61084;55.816;37.036;2023-04-08T00:45:53;100584.06;;;4.22;46.84
72798;BME280;61084;55.816;37.036;2023-04-08T00:48:19;100586.66;;;4.21;47.06
72798;BME280;61084;55.816;37.036;2023-04-08T00:50:45;100585.81;;;4.20;47.23
72798;BME280;61084;55.816;37.036;2023-04-08T00:53:17;100591.03;;;4.19;47.43
72798;BME280;61084;55.816;37.036;2023-04-08T00:55:43;100588.44;;;4.16;47.08
72798;BME280;61084;55.816;37.036;2023-04-08T00:58:16;100591.91;;;4.13;47.20
72798;BME280;61084;55.816;37.036;2023-04-08T01:00:49;100592.81;;;4.12;47.11
72798;BME280;61084;55.816;37.036;2023-04-08T01:06:14;100589.38;;;4.10;47.07
72798;BME280;61084;55.816;37.036;2023-04-08T01:08:44;100591.09;;;4.07;47.16
72798;BME280;61084;55.816;37.036;2023-04-08T01:11:12;100595.44;;;4.05;47.53
72798;BME280;61084;55.816;37.036;2023-04-08T01:13:40;100597.19;;;4.03;47.22
72798;BME280;61084;55.816;37.036;2023-04-08T01:16:13;100591.16;;;4.01;47.63
72798;BME280;61084;55.816;37.036;2023-04-08T01:18:41;100592.03;;;3.98;47.55
72798;BME280;61084;55.816;37.036;2023-04-08T01:21:09;100597.25;;;3.97;47.61
72798;BME280;61084;55.816;37.036;2023-04-08T01:24:03;100592.09;;;3.92;47.51
72798;BME280;61084;55.816;37.036;2023-04-08T01:26:31;100593.84;;;3.90;47.71
72798;BME280;61084;55.816;37.036;2023-04-08T01:28:59;100591.28;;;3.87;47.70
72798;BME280;61084;55.816;37.036;2023-04-08T01:31:26;100590.41;;;3.85;47.71
72798;BME280;61084;55.816;37.036;2023-04-08T01:33:53;100583.50;;;3.83;47.84
72798;BME280;61084;55.816;37.036;2023-04-08T01:36:21;100587.84;;;3.80;47.74
72798;BME280;61084;55.816;37.036;2023-04-08T01:38:49;100590.47;;;3.77;47.77
72798;BME280;61084;55.816;37.036;2023-04-08T01:41:16;100586.16;;;3.73;47.76
72798;BME280;61084;55.816;37.036;2023-04-08T01:43:51;100589.63;;;3.72;47.72
72798;BME280;61084;55.816;37.036;2023-04-08T01:46:19;100593.94;;;3.72;47.98
72798;BME280;61084;55.816;37.036;2023-04-08T01:48:45;100596.56;;;3.70;48.24
72798;BME280;61084;55.816;37.036;2023-04-08T01:51:13;100591.38;;;3.69;47.71
72798;BME280;61084;55.816;37.036;2023-04-08T01:53:40;100588.81;;;3.67;48.11
72798;BME280;61084;55.816;37.036;2023-04-08T01:56:11;100589.69;;;3.65;48.21
72798;BME280;61084;55.816;37.036;2023-04-08T01:58:46;100591.41;;;3.61;47.97
72798;BME280;61084;55.816;37.036;2023-04-08T02:01:22;100593.16;;;3.59;48.16
72798;BME280;61084;55.816;37.036;2023-04-08T02:03:49;100588.00;;;3.56;48.48
72798;BME280;61084;55.816;37.036;2023-04-08T02:06:23;100594.06;;;3.55;48.46
72798;BME280;61084;55.816;37.036;2023-04-08T02:08:51;100593.22;;;3.52;48.69
72798;BME280;61084;55.816;37.036;2023-04-08T02:11:23;100595.81;;;3.50;48.23
72798;BME280;61084;55.816;37.036;2023-04-08T02:13:50;100592.38;;;3.50;48.50
72798;BME280;61084;55.816;37.036;2023-04-08T02:19:35;100595.81;;;3.46;48.62
72798;BME280;61084;55.816;37.036;2023-04-08T02:22:11;100601.91;;;3.45;48.57
72798;BME280;61084;55.816;37.036;2023-04-08T02:24:39;100598.44;;;3.43;48.86
72798;BME280;61084;55.816;37.036;2023-04-08T02:27:09;100597.59;;;3.41;48.61
72798;BME280;61084;55.816;37.036;2023-04-08T02:29:35;100598.47;;;3.38;48.76
72798;BME280;61084;55.816;37.036;2023-04-08T02:32:03;100603.69;;;3.37;48.80
72798;BME280;61084;55.816;37.036;2023-04-08T02:34:30;100603.69;;;3.37;49.03
72798;BME280;61084;55.816;37.036;2023-04-08T02:36:57;100608.84;;;3.35;48.97
72798;BME280;61084;55.816;37.036;2023-04-08T02:39:31;100608.00;;;3.35;48.77
72798;BME280;61084;55.816;37.036;2023-04-08T02:41:57;100604.56;;;3.33;48.74
72798;BME280;61084;55.816;37.036;2023-04-08T02:44:24;100608.03;;;3.30;49.22
72798;BME280;61084;55.816;37.036;2023-04-08T02:46:50;100602.84;;;3.30;48.89
72798;BME280;61084;55.816;37.036;2023-04-08T02:49:16;100610.59;;;3.29;49.13
72798;BME280;61084;55.816;37.036;2023-04-08T02:51:41;100603.72;;;3.28;48.91
72798;BME280;61084;55.816;37.036;2023-04-08T02:54:07;100608.06;;;3.26;49.21
72798;BME280;61084;55.816;37.036;2023-04-08T02:56:33;100613.22;;;3.24;48.92
72798;BME280;61084;55.816;37.036;2023-04-08T02:58:59;100616.69;;;3.25;49.14
72798;BME280;61084;55.816;37.036;2023-04-08T03:01:26;100609.78;;;3.24;49.05
72798;BME280;61084;55.816;37.036;2023-04-08T03:03:52;100609.78;;;3.22;49.30
72798;BME280;61084;55.816;37.036;2023-04-08T03:06:18;100612.38;;;3.21;49.38
72798;BME280;61084;55.816;37.036;2023-04-08T03:08:43;100608.06;;;3.21;49.46
72798;BME280;61084;55.816;37.036;2023-04-08T03:11:09;100613.25;;;3.21;49.18
72798;BME280;61084;55.816;37.036;2023-04-08T03:13:35;100612.41;;;3.19;49.60
72798;BME280;61084;55.816;37.036;2023-04-08T03:16:01;100613.28;;;3.20;49.54
72798;BME280;61084;55.816;37.036;2023-04-08T03:18:27;100614.97;;;3.21;49.81
72798;BME280;61084;55.816;37.036;2023-04-08T03:20:53;100617.56;;;3.21;49.53
72798;BME280;61084;55.816;37.036;2023-04-08T03:23:18;100616.69;;;3.23;49.16
72798;BME280;61084;55.816;37.036;2023-04-08T03:25:44;100619.28;;;3.28;49.40
72798;BME280;61084;55.816;37.036;2023-04-08T03:28:10;100619.25;;;3.31;49.43
72798;BME280;61084;55.816;37.036;2023-04-08T03:30:36;100627.03;;;3.32;49.35
72798;BME280;61084;55.816;37.036;2023-04-08T03:33:02;100623.59;;;3.35;49.34
72798;BME280;61084;55.816;37.036;2023-04-08T03:35:29;100628.75;;;3.39;49.48
72798;BME280;61084;55.816;37.036;2023-04-08T03:37:55;100627.88;;;3.43;49.19
72798;BME280;61084;55.816;37.036;2023-04-08T03:40:21;100624.38;;;3.47;49.69
72798;BME280;61084;55.816;37.036;2023-04-08T03:42:47;100619.16;;;3.53;49.22
72798;BME280;61084;55.816;37.036;2023-04-08T03:45:12;100622.59;;;3.57;49.27
72798;BME280;61084;55.816;37.036;2023-04-08T03:47:39;100616.53;;;3.62;49.36
72798;BME280;61084;55.816;37.036;2023-04-08T03:50:07;100622.53;;;3.69;48.96
72798;BME280;61084;55.816;37.036;2023-04-08T03:52:33;100618.19;;;3.72;49.13
72798;BME280;61084;55.816;37.036;2023-04-08T03:54:58;100615.53;;;3.78;49.13
72798;BME280;61084;55.816;37.036;2023-04-08T03:57:25;100618.13;;;3.85;49.29
72798;BME280;61084;55.816;37.036;2023-04-08T03:59:50;100609.41;;;3.92;49.10
72798;BME280;61084;55.816;37.036;2023-04-08T04:02:16;100616.28;;;3.99;49.11
72798;BME280;61084;55.816;37.036;2023-04-08T04:04:42;100615.38;;;4.06;48.86
72798;BME280;61084;55.816;37.036;2023-04-08T04:07:08;100618.78;;;4.15;49.09
72798;BME280;61084;55.816;37.036;2023-04-08T04:09:33;100617.88;;;4.19;49.16
72798;BME280;61084;55.816;37.036;2023-04-08T04:12:00;100621.28;;;4.24;48.68
72798;BME280;61084;55.816;37.036;2023-04-08T04:14:26;100609.09;;;4.31;48.81
72798;BME280;61084;55.816;37.036;2023-04-08T04:16:51;100615.94;;;4.39;48.92
72798;BME280;61084;55.816;37.036;2023-04-08T04:19:17;100615.94;;;4.45;48.92
72798;BME280;61084;55.816;37.036;2023-04-08T04:21:43;100627.09;;;4.55;48.71
72798;BME280;61084;55.816;37.036;2023-04-08T04:24:09;100620.97;;;4.61;48.42
72798;BME280;61084;55.816;37.036;2023-04-08T04:26:35;100622.63;;;4.68;48.29
72798;BME280;61084;55.816;37.036;2023-04-08T04:29:00;100624.28;;;4.75;48.37
72798;BME280;61084;55.816;37.036;2023-04-08T04:31:26;100624.19;;;4.85;48.45
72798;BME280;61084;55.816;37.036;2023-04-08T04:33:52;100627.53;;;4.96;48.20
72798;BME280;61084;55.816;37.036;2023-04-08T04:36:18;100633.53;;;5.06;47.99
72798;BME280;61084;55.816;37.036;2023-04-08T04:38:44;100621.28;;;5.14;47.99
72798;BME280;61084;55.816;37.036;2023-04-08T04:41:10;100622.88;;;5.25;48.18
72798;BME280;61084;55.816;37.036;2023-04-08T04:43:36;100623.63;;;5.37;47.82
72798;BME280;61084;55.816;37.036;2023-04-08T04:46:03;100628.66;;;5.50;47.68
72798;BME280;61084;55.816;37.036;2023-04-08T04:48:32;100627.66;;;5.60;48.01
72798;BME280;61084;55.816;37.036;2023-04-08T04:50:59;100627.50;;;5.71;47.73
72798;BME280;61084;55.816;37.036;2023-04-08T04:53:26;100624.81;;;5.77;47.19
72798;BME280;61084;55.816;37.036;2023-04-08T04:55:51;100631.66;;;5.85;47.14
72798;BME280;61084;55.816;37.036;2023-04-08T04:58:17;100629.84;;;5.93;47.11
72798;BME280;61084;55.816;37.036;2023-04-08T05:00:44;100635.72;;;6.06;47.11
72798;BME280;61084;55.816;37.036;2023-04-08T05:03:10;100632.91;;;6.18;47.51
72798;BME280;61084;55.816;37.036;2023-04-08T05:05:36;100631.91;;;6.28;47.25
72798;BME280;61084;55.816;37.036;2023-04-08T05:08:02;100634.41;;;6.34;47.13
72798;BME280;61084;55.816;37.036;2023-04-08T05:10:28;100631.59;;;6.46;46.88
72798;BME280;61084;55.816;37.036;2023-04-08T05:12:54;100632.34;;;6.54;47.01
72798;BME280;61084;55.816;37.036;2023-04-08T05:15:19;100637.38;;;6.65;46.60
72798;BME280;61084;55.816;37.036;2023-04-08T05:17:45;100642.34;;;6.78;46.51
72798;BME280;61084;55.816;37.036;2023-04-08T05:20:11;100639.56;;;6.89;46.31
72798;BME280;61084;55.816;37.036;2023-04-08T05:22:37;100640.22;;;7.00;46.47
72798;BME280;61084;55.816;37.036;2023-04-08T05:25:04;100639.94;;;7.15;46.67
72798;BME280;61084;55.816;37.036;2023-04-08T05:27:30;100645.72;;;7.29;45.93
72798;BME280;61084;55.816;37.036;2023-04-08T05:29:56;100642.94;;;7.38;46.08
72798;BME280;61084;55.816;37.036;2023-04-08T05:32:22;100649.75;;;7.45;45.76
72798;BME280;61084;55.816;37.036;2023-04-08T05:34:48;100649.59;;;7.53;45.92
72798;BME280;61084;55.816;37.036;2023-04-08T05:37:14;100652.94;;;7.59;46.00
72798;BME280;61084;55.816;37.036;2023-04-08T05:39:39;100652.69;;;7.72;45.51
72798;BME280;61084;55.816;37.036;2023-04-08T05:42:05;100656.78;;;7.83;45.38
72798;BME280;61084;55.816;37.036;2023-04-08T05:44:31;100653.88;;;7.97;45.99
72798;BME280;61084;55.816;37.036;2023-04-08T05:46:57;100651.94;;;8.06;45.25
72798;BME280;61084;55.816;37.036;2023-04-08T05:49:24;100643.88;;;8.14;45.57
72798;BME280;61084;55.816;37.036;2023-04-08T05:51:50;100645.28;;;8.30;45.15
72798;BME280;61084;55.816;37.036;2023-04-08T05:54:16;100651.91;;;8.45;45.12
72798;BME280;61084;55.816;37.036;2023-04-08T05:56:42;100650.72;;;8.58;44.91
72798;BME280;61084;55.816;37.036;2023-04-08T05:59:10;100659.22;;;8.67;44.79
72798;BME280;61084;55.816;37.036;2023-04-08T06:01:36;100651.91;;;8.80;45.02
72798;BME280;61084;55.816;37.036;2023-04-08T06:04:02;100651.53;;;8.93;44.39
72798;BME280;61084;55.816;37.036;2023-04-08T06:06:28;100650.38;;;9.03;44.53
72798;BME280;61084;55.816;37.036;2023-04-08T06:08:54;100652.59;;;9.19;44.22
72798;BME280;61084;55.816;37.036;2023-04-08T06:11:19;100652.22;;;9.32;44.41
72798;BME280;61084;55.816;37.036;2023-04-08T06:13:45;100652.69;;;9.46;43.98
72798;BME280;61084;55.816;37.036;2023-04-08T06:16:12;100651.53;;;9.56;43.44
72798;BME280;61084;55.816;37.036;2023-04-08T06:18:38;100659.97;;;9.66;43.73
72798;BME280;61084;55.816;37.036;2023-04-08T06:21:04;100652.59;;;9.80;43.81
72798;BME280;61084;55.816;37.036;2023-04-08T06:23:30;100643.53;;;9.90;43.57
72798;BME280;61084;55.816;37.036;2023-04-08T06:25:56;100644.13;;;10.00;43.22
72798;BME280;61084;55.816;37.036;2023-04-08T06:28:31;100646.47;;;10.07;42.84
72798;BME280;61084;55.816;37.036;2023-04-08T06:30:57;100649.59;;;10.21;42.96
72798;BME280;61084;55.816;37.036;2023-04-08T06:33:23;100651.78;;;10.35;42.42
72798;BME280;61084;55.816;37.036;2023-04-08T06:35:49;100646.19;;;10.45;42.57
72798;BME280;61084;55.816;37.036;2023-04-08T06:38:15;100644.91;;;10.57;42.92
72798;BME280;61084;55.816;37.036;2023-04-08T06:40:41;100651.44;;;10.72;42.49
72798;BME280;61084;55.816;37.036;2023-04-08T06:43:07;100643.44;;;10.75;42.08
72798;BME280;61084;55.816;37.036;2023-04-08T06:45:37;100649.16;;;10.87;41.82
72798;BME280;61084;55.816;37.036;2023-04-08T06:48:03;100654.78;;;11.01;42.13
72798;BME280;61084;55.816;37.036;2023-04-08T06:50:29;100651.75;;;11.13;42.06
72798;BME280;61084;55.816;37.036;2023-04-08T06:52:55;100652.31;;;11.21;42.11
72798;BME280;61084;55.816;37.036;2023-04-08T06:55:27;100658.84;;;11.34;41.49
72798;BME280;61084;55.816;37.036;2023-04-08T06:57:53;100654.91;;;11.46;41.83
72798;BME280;61084;55.816;37.036;2023-04-08T07:00:19;100650.97;;;11.58;41.70
72798;BME280;61084;55.816;37.036;2023-04-08T07:02:44;100655.94;;;11.67;41.71
72798;BME280;61084;55.816;37.036;2023-04-08T07:05:10;100649.03;;;11.63;39.08
72798;BME280;61084;55.816;37.036;2023-04-08T07:07:36;100639.50;;;11.60;40.81
72798;BME280;61084;55.816;37.036;2023-04-08T07:10:02;100644.38;;;11.71;40.70
72798;BME280;61084;55.816;37.036;2023-04-08T07:12:28;100649.84;;;11.88;40.93
72798;BME280;61084;55.816;37.036;2023-04-08T07:14:58;100652.03;;;12.00;41.40
72798;BME280;61084;55.816;37.036;2023-04-08T07:17:23;100639.31;;;12.11;40.76
72798;BME280;61084;55.816;37.036;2023-04-08T07:19:49;100642.56;;;12.18;39.67
72798;BME280;61084;55.816;37.036;2023-04-08T07:22:15;100637.13;;;12.22;40.42
72798;BME280;61084;55.816;37.036;2023-04-08T07:24:41;100638.38;;;12.34;38.02
72798;BME280;61084;55.816;37.036;2023-04-08T07:27:10;100633.72;;;12.40;39.57
72798;BME280;61084;55.816;37.036;2023-04-08T07:29:35;100630.72;;;12.49;38.42
72798;BME280;61084;55.816;37.036;2023-04-08T07:32:01;100634.56;;;12.62;40.01
72798;BME280;61084;55.816;37.036;2023-04-08T07:34:27;100631.47;;;12.73;39.44
72798;BME280;61084;55.816;37.036;2023-04-08T07:36:52;100632.09;;;12.79;40.19
72798;BME280;61084;55.816;37.036;2023-04-08T07:39:18;100630.13;;;12.84;39.52
72798;BME280;61084;55.816;37.036;2023-04-08T07:41:44;100633.09;;;12.97;40.04
72798;BME280;61084;55.816;37.036;2023-04-08T07:44:09;100635.28;;;13.08;39.48
72798;BME280;61084;55.816;37.036;2023-04-08T07:46:36;100629.69;;;13.15;39.95
72798;BME280;61084;55.816;37.036;2023-04-08T07:49:03;100629.69;;;13.15;39.19
72798;BME280;61084;55.816;37.036;2023-04-08T07:51:28;100632.13;;;13.20;39.23
72798;BME280;61084;55.816;37.036;2023-04-08T07:53:54;100624.59;;;13.31;38.95
72798;BME280;61084;55.816;37.036;2023-04-08T07:56:20;100628.31;;;13.45;38.58
72798;BME280;61084;55.816;37.036;2023-04-08T07:58:46;100627.75;;;13.57;39.17
72798;BME280;61084;55.816;37.036;2023-04-08T08:01:20;100629.97;;;13.67;39.11
72798;BME280;61084;55.816;37.036;2023-04-08T08:03:47;100625.56;;;13.67;38.38
72798;BME280;61084;55.816;37.036;2023-04-08T08:06:13;100626.78;;;13.79;37.20
72798;BME280;61084;55.816;37.036;2023-04-08T08:08:39;100625.56;;;13.86;37.46
72798;BME280;61084;55.816;37.036;2023-04-08T08:11:05;100625.13;;;13.95;38.24
72798;BME280;61084;55.816;37.036;2023-04-08T08:13:32;100618.34;;;14.08;39.63
72798;BME280;61084;55.816;37.036;2023-04-08T08:15:58;100635.13;;;14.07;38.81
72798;BME280;61084;55.816;37.036;2023-04-08T08:18:24;100622.72;;;14.09;37.42
72798;BME280;61084;55.816;37.036;2023-04-08T08:20:50;100618.78;;;14.17;37.55
72798;BME280;61084;55.816;37.036;2023-04-08T08:23:16;100615.50;;;14.31;37.75
72798;BME280;61084;55.816;37.036;2023-04-08T08:25:41;100623.72;;;14.42;37.58
72798;BME280;61084;55.816;37.036;2023-04-08T08:28:07;100625.59;;;14.40;38.23
72798;BME280;61084;55.816;37.036;2023-04-08T08:30:33;100614.81;;;14.45;37.88
72798;BME280;61084;55.816;37.036;2023-04-08T08:32:59;100614.75;;;14.46;36.81
72798;BME280;61084;55.816;37.036;2023-04-08T08:35:26;100623.28;;;14.51;37.57
72798;BME280;61084;55.816;37.036;2023-04-08T08:37:51;100617.22;;;14.49;37.13
72798;BME280;61084;55.816;37.036;2023-04-08T08:40:17;100616.09;;;14.55;37.22
72798;BME280;61084;55.816;37.036;2023-04-08T08:42:50;100617.41;;;14.63;36.52
72798;BME280;61084;55.816;37.036;2023-04-08T08:45:18;100622.47;;;14.68;36.60
72798;BME280;61084;55.816;37.036;2023-04-08T08:47:45;100612.66;;;14.70;36.42
72798;BME280;61084;55.816;37.036;2023-04-08T08:50:11;100610.72;;;14.73;36.27
72798;BME280;61084;55.816;37.036;2023-04-08T08:52:37;100605.28;;;14.76;34.41
72798;BME280;61084;55.816;37.036;2023-04-08T08:55:03;100602.00;;;14.88;35.03
72798;BME280;61084;55.816;37.036;2023-04-08T08:57:29;100604.19;;;14.97;35.23
72798;BME280;61084;55.816;37.036;2023-04-08T08:59:55;100598.56;;;15.03;36.38
72798;BME280;61084;55.816;37.036;2023-04-08T09:02:28;100599.00;;;15.11;36.13
72798;BME280;61084;55.816;37.036;2023-04-08T09:05:02;100602.28;;;15.17;36.35
72798;BME280;61084;55.816;37.036;2023-04-08T09:07:36;100599.19;;;15.08;35.75
72798;BME280;61084;55.816;37.036;2023-04-08T09:10:11;100599.97;;;15.10;35.08
72798;BME280;61084;55.816;37.036;2023-04-08T09:12:54;100610.78;;;15.06;36.31
72798;BME280;61084;55.816;37.036;2023-04-08T09:15:20;100607.03;;;15.10;36.79
72798;BME280;61084;55.816;37.036;2023-04-08T09:17:47;100599.88;;;15.12;35.83
72798;BME280;61084;55.816;37.036;2023-04-08T09:20:13;100604.00;;;15.18;35.96
72798;BME280;61084;55.816;37.036;2023-04-08T09:22:55;100603.69;;;15.24;34.87
72798;BME280;61084;55.816;37.036;2023-04-08T09:25:28;100591.66;;;15.34;35.60
72798;BME280;61084;55.816;37.036;2023-04-08T09:27:55;100587.47;;;15.47;35.81
72798;BME280;61084;55.816;37.036;2023-04-08T09:30:22;100583.69;;;15.51;35.85
72798;BME280;61084;55.816;37.036;2023-04-08T09:32:56;100583.53;;;15.54;35.39
72798;BME280;61084;55.816;37.036;2023-04-08T09:35:23;100591.09;;;15.61;37.14
72798;BME280;61084;55.816;37.036;2023-04-08T09:37:49;100582.69;;;15.53;36.73
72798;BME280;61084;55.816;37.036;2023-04-08T09:40:16;100584.91;;;15.45;35.32
72798;BME280;61084;55.816;37.036;2023-04-08T09:42:47;100582.78;;;15.52;35.42
72798;BME280;61084;55.816;37.036;2023-04-08T09:45:16;100584.47;;;15.53;35.24
72798;BME280;61084;55.816;37.036;2023-04-08T09:48:08;100593.47;;;15.50;35.56
72798;BME280;61084;55.816;37.036;2023-04-08T09:50:39;100583.31;;;15.58;34.96
72798;BME280;61084;55.816;37.036;2023-04-08T09:53:13;100590.81;;;15.66;35.39
72798;BME280;61084;55.816;37.036;2023-04-08T09:55:49;100587.38;;;15.64;35.91
72798;BME280;61084;55.816;37.036;2023-04-08T09:58:21;100583.31;;;15.58;34.57
72798;BME280;61084;55.816;37.036;2023-04-08T10:00:53;100582.38;;;15.75;35.40
72798;BME280;61084;55.816;37.036;2023-04-08T10:05:54;100576.72;;;15.97;34.56
72798;BME280;61084;55.816;37.036;2023-04-08T10:08:22;100575.53;;;16.02;35.07
72798;BME280;61084;55.816;37.036;2023-04-08T10:10:49;100578.19;;;16.02;34.48
72798;BME280;61084;55.816;37.036;2023-04-08T10:13:16;100575.28;;;16.07;34.88
72798;BME280;61084;55.816;37.036;2023-04-08T10:15:42;100574.94;;;16.13;35.98
72798;BME280;61084;55.816;37.036;2023-04-08T10:23:01;100563.63;;;16.25;34.82
72798;BME280;61084;55.816;37.036;2023-04-08T10:25:28;100564.69;;;16.07;34.49
72798;BME280;61084;55.816;37.036;2023-04-08T10:27:55;100559.66;;;16.02;34.86
72798;BME280;61084;55.816;37.036;2023-04-08T10:32:56;100564.09;;;16.02;35.21
72798;BME280;61084;55.816;37.036;2023-04-08T10:35:39;100554.25;;;16.04;34.06
72798;BME280;61084;55.816;37.036;2023-04-08T10:38:07;100561.53;;;16.16;34.56
72798;BME280;61084;55.816;37.036;2023-04-08T10:40:38;100568.50;;;16.32;34.28
72798;BME280;61084;55.816;37.036;2023-04-08T10:43:06;100560.00;;;16.41;33.50
72798;BME280;61084;55.816;37.036;2023-04-08T10:45:33;100567.97;;;16.41;34.97
72798;BME280;61084;55.816;37.036;2023-04-08T10:50:36;100548.59;;;16.25;33.25
72798;BME280;61084;55.816;37.036;2023-04-08T10:53:02;100549.84;;;16.34;34.54
72798;BME280;61084;55.816;37.036;2023-04-08T10:55:29;100549.22;;;16.44;34.61
72798;BME280;61084;55.816;37.036;2023-04-08T10:58:09;100553.50;;;16.47;33.73
72798;BME280;61084;55.816;37.036;2023-04-08T11:00:37;100539.47;;;16.45;33.84
72798;BME280;61084;55.816;37.036;2023-04-08T11:03:05;100535.69;;;16.49;33.47
72798;BME280;61084;55.816;37.036;2023-04-08T11:05:32;100538.09;;;16.53;33.51
72798;BME280;61084;55.816;37.036;2023-04-08T11:07:58;100541.38;;;16.73;32.37
72798;BME280;61084;55.816;37.036;2023-04-08T11:10:24;100530.78;;;16.87;33.64
72798;BME280;61084;55.816;37.036;2023-04-08T11:12:50;100539.06;;;16.96;34.28
72798;BME280;61084;55.816;37.036;2023-04-08T11:15:16;100529.09;;;17.00;33.96
72798;BME280;61084;55.816;37.036;2023-04-08T11:17:42;100527.97;;;17.04;33.62
72798;BME280;61084;55.816;37.036;2023-04-08T11:20:09;100534.41;;;17.00;33.65
72798;BME280;61084;55.816;37.036;2023-04-08T11:22:35;100527.22;;;17.02;33.76
72798;BME280;61084;55.816;37.036;2023-04-08T11:25:01;100518.31;;;17.03;32.66
72798;BME280;61084;55.816;37.036;2023-04-08T11:27:29;100533.00;;;17.08;32.88
72798;BME280;61084;55.816;37.036;2023-04-08T11:29:55;100524.84;;;17.25;33.11
72798;BME280;61084;55.816;37.036;2023-04-08T11:32:21;100518.97;;;17.34;31.92
72798;BME280;61084;55.816;37.036;2023-04-08T11:34:54;100517.72;;;17.40;33.47
72798;BME280;61084;55.816;37.036;2023-04-08T11:37:20;100527.38;;;17.41;33.00
72798;BME280;61084;55.816;37.036;2023-04-08T11:39:46;100521.13;;;17.42;33.12
72798;BME280;61084;55.816;37.036;2023-04-08T11:42:28;100517.53;;;17.43;32.75
72798;BME280;61084;55.816;37.036;2023-04-08T11:44:55;100521.53;;;17.50;32.83
72798;BME280;61084;55.816;37.036;2023-04-08T11:47:31;100511.16;;;17.60;33.80
72798;BME280;61084;55.816;37.036;2023-04-08T11:49:57;100516.69;;;17.57;32.33
72798;BME280;61084;55.816;37.036;2023-04-08T11:52:46;100510.13;;;17.62;31.22
72798;BME280;61084;55.816;37.036;2023-04-08T11:55:28;100507.63;;;17.73;31.42
72798;BME280;61084;55.816;37.036;2023-04-08T11:57:56;100507.78;;;17.84;32.42
72798;BME280;61084;55.816;37.036;2023-04-08T12:00:22;100510.03;;;17.90;31.63
72798;BME280;61084;55.816;37.036;2023-04-08T12:02:48;100511.25;;;17.99;32.60
72798;BME280;61084;55.816;37.036;2023-04-08T12:05:21;100511.34;;;17.97;31.94
72798;BME280;61084;55.816;37.036;2023-04-08T12:07:49;100499.97;;;17.95;30.88
72798;BME280;61084;55.816;37.036;2023-04-08T12:10:15;100500.72;;;17.97;31.68
72798;BME280;61084;55.816;37.036;2023-04-08T12:12:41;100503.81;;;18.04;31.99
72798;BME280;61084;55.816;37.036;2023-04-08T12:15:07;100500.28;;;18.18;33.01
72798;BME280;61084;55.816;37.036;2023-04-08T12:17:34;100497.50;;;18.19;32.17
72798;BME280;61084;55.816;37.036;2023-04-08T12:19:59;100492.94;;;18.34;31.66
72798;BME280;61084;55.816;37.036;2023-04-08T12:22:26;100503.75;;;18.45;32.04
72798;BME280;61084;55.816;37.036;2023-04-08T12:24:52;100491.00;;;18.50;31.83
72798;BME280;61084;55.816;37.036;2023-04-08T12:27:18;100490.03;;;18.51;32.76
72798;BME280;61084;55.816;37.036;2023-04-08T12:29:43;100493.03;;;18.46;33.21
72798;BME280;61084;55.816;37.036;2023-04-08T12:32:10;100492.13;;;18.33;31.55
72798;BME280;61084;55.816;37.036;2023-04-08T12:34:37;100492.44;;;18.41;32.15
72798;BME280;61084;55.816;37.036;2023-04-08T12:37:02;100482.06;;;18.51;31.59
72798;BME280;61084;55.816;37.036;2023-04-08T12:39:28;100487.81;;;18.57;31.65
72798;BME280;61084;55.816;37.036;2023-04-08T12:41:54;100485.16;;;18.57;31.50
72798;BME280;61084;55.816;37.036;2023-04-08T12:44:21;100491.13;;;18.61;32.46
72798;BME280;61084;55.816;37.036;2023-04-08T12:46:47;100479.63;;;18.48;31.34
72798;BME280;61084;55.816;37.036;2023-04-08T12:49:13;100487.03;;;18.43;31.35
72798;BME280;61084;55.816;37.036;2023-04-08T12:51:39;100476.38;;;18.43;31.33
72798;BME280;61084;55.816;37.036;2023-04-08T12:54:05;100474.59;;;18.43;30.77
72798;BME280;61084;55.816;37.036;2023-04-08T12:56:31;100471.09;;;18.55;31.20
72798;BME280;61084;55.816;37.036;2023-04-08T12:58:58;100476.97;;;18.73;31.16
72798;BME280;61084;55.816;37.036;2023-04-08T13:01:24;100473.78;;;18.93;30.71
72798;BME280;61084;55.816;37.036;2023-04-08T13:03:49;100459.72;;;19.04;31.20
72798;BME280;61084;55.816;37.036;2023-04-08T13:06:15;100460.53;;;19.17;30.74